Time;durP1;ratioP1;P1;durP2;ratioP2;P2;SDS_P1;SDS_P2;PMS_P1;PMS_P2;Temp;Humidity;BMP_temperature;BMP_pressure;BME280_temperature;BME280_humidity;BME280_pressure;Samples;Min_cycle;Max_cycle;Signal;HPM_P1;HPM_P2
2022/09/30 00:01:25;;;;;;;;;7.00;7.00;;;;;6.29;79.43;99084.66;5034091;28;8809;-60
2022/09/30 00:03:52;;;;;;;;;7.00;7.00;;;;;6.27;79.84;99091.88;5034799;28;8817;-60
2022/09/30 00:06:21;;;;;;;;;6.80;6.60;;;;;6.26;79.43;99091.97;5034604;28;9583;-59
2022/09/30 00:08:48;;;;;;;;;6.00;6.00;;;;;6.25;79.35;99087.66;5034589;28;8821;-60
2022/09/30 00:11:16;;;;;;;;;6.00;6.00;;;;;6.23;79.29;99089.59;5034633;28;9514;-60
2022/09/30 00:13:44;;;;;;;;;6.40;6.20;;;;;6.22;79.81;99093.19;5034675;28;8897;-60
2022/09/30 00:16:11;;;;;;;;;6.40;4.00;;;;;6.21;79.75;99094.16;5033984;28;8848;-61
2022/09/30 00:18:40;;;;;;;;;6.00;6.00;;;;;6.22;79.75;99093.19;5033997;28;8883;-60
2022/09/30 00:21:07;;;;;;;;;6.80;5.60;;;;;6.25;79.43;99093.81;5034450;28;8869;-60
2022/09/30 00:23:36;;;;;;;;;4.00;4.00;;;;;6.26;79.25;99099.91;5034271;28;8825;-60
2022/09/30 00:26:04;;;;;;;;;5.60;4.80;;;;;6.25;79.21;99099.09;5033759;28;8837;-60
2022/09/30 00:28:32;;;;;;;;;6.20;6.00;;;;;6.25;79.59;99099.09;5033930;28;8909;-60
2022/09/30 00:31:00;;;;;;;;;3.80;3.60;;;;;6.24;79.00;99099.19;5034086;28;8813;-61
2022/09/30 00:33:28;;;;;;;;;4.00;4.00;;;;;6.22;79.35;99103.75;5034029;28;8832;-61
2022/09/30 00:35:55;;;;;;;;;1.00;1.00;;;;;6.18;79.16;99110.22;5034149;28;8813;-60
2022/09/30 00:38:23;;;;;;;;;3.60;3.20;;;;;6.13;79.79;99109.72;5033975;28;9490;-60
2022/09/30 00:40:51;;;;;;;;;3.40;2.60;;;;;6.08;79.73;99112.69;5033680;28;8865;-60
2022/09/30 00:43:19;;;;;;;;;4.00;4.00;;;;;6.05;79.59;99117.38;5034036;28;8848;-59
2022/09/30 00:45:47;;;;;;;;;3.60;3.60;;;;;6.01;79.84;99114.13;5033752;28;8913;-59
2022/09/30 00:48:14;;;;;;;;;5.60;5.60;;;;;5.99;79.65;99112.56;5033663;28;8914;-60
2022/09/30 00:50:44;;;;;;;;;4.00;3.80;;;;;5.96;79.53;99107.50;5034190;28;8837;-60
2022/09/30 00:53:11;;;;;;;;;6.20;5.60;;;;;5.93;79.49;99108.56;5034225;28;8821;-60
2022/09/30 00:55:39;;;;;;;;;5.60;5.60;;;;;5.91;79.61;99110.47;5034364;28;8833;-61
2022/09/30 00:58:07;;;;;;;;;3.00;3.00;;;;;5.87;79.53;99110.81;5034050;28;8900;-60
2022/09/30 01:00:35;;;;;;;;;3.00;3.00;;;;;5.83;79.42;99112.84;5033212;28;8829;-60
2022/09/30 01:03:03;;;;;;;;;4.00;4.00;;;;;5.81;80.37;99121.84;5033185;28;8821;-60
2022/09/30 01:05:30;;;;;;;;;4.00;4.00;;;;;5.77;79.62;99117.72;5033842;28;9588;-60
2022/09/30 01:07:59;;;;;;;;;4.00;4.00;;;;;5.73;79.78;99118.88;5033669;28;8829;-60
2022/09/30 01:10:27;;;;;;;;;3.60;3.60;;;;;5.67;80.10;99108.75;5032732;28;8845;-60
2022/09/30 01:12:54;;;;;;;;;5.60;4.00;;;;;5.62;80.45;99114.38;5031996;28;8840;-62
2022/09/30 01:15:22;;;;;;;;;4.00;4.00;;;;;5.59;79.90;99109.34;5033249;28;8886;-62
2022/09/30 01:17:49;;;;;;;;;3.60;2.20;;;;;5.57;80.02;99115.69;5032809;28;8828;-62
2022/09/30 01:20:17;;;;;;;;;4.80;4.40;;;;;5.54;80.51;99113.28;5032792;28;8816;-62
2022/09/30 01:22:45;;;;;;;;;4.80;4.80;;;;;5.53;80.03;99109.78;5032836;28;8813;-62
2022/09/30 01:25:13;;;;;;;;;6.20;6.00;;;;;5.52;80.17;99115.16;5032556;28;8849;-61
2022/09/30 01:27:40;;;;;;;;;3.00;3.00;;;;;5.53;79.79;99114.22;5032771;28;8836;-62
2022/09/30 01:30:08;;;;;;;;;5.60;5.60;;;;;5.49;80.35;99110.09;5032761;28;8825;-60
2022/09/30 01:32:36;;;;;;;;;4.00;4.00;;;;;5.48;79.80;99111.06;5032638;28;8817;-62
2022/09/30 01:35:04;;;;;;;;;4.00;4.00;;;;;5.45;80.45;99119.19;5031864;28;8897;-62
2022/09/30 01:37:31;;;;;;;;;4.40;4.00;;;;;5.42;80.07;99117.63;5030023;28;9530;-61
2022/09/30 01:39:59;;;;;;;;;5.60;3.40;;;;;5.41;80.53;99121.19;5029427;28;9519;-61
2022/09/30 01:42:26;;;;;;;;;5.20;4.80;;;;;5.41;79.91;99115.94;5029680;28;8824;-62
2022/09/30 01:44:54;;;;;;;;;3.80;3.60;;;;;5.43;80.15;99114.03;5029590;28;8822;-62
2022/09/30 01:47:22;;;;;;;;;5.60;5.60;;;;;5.43;79.94;99118.47;5031625;28;8836;-60
2022/09/30 01:49:50;;;;;;;;;1.00;1.00;;;;;5.44;80.36;99121.00;5032434;28;8913;-61
2022/09/30 01:52:17;;;;;;;;;6.40;3.00;;;;;5.45;79.76;99130.59;5032415;28;8821;-62
2022/09/30 01:54:45;;;;;;;;;3.20;2.60;;;;;5.45;79.83;99124.47;5032494;28;9506;-61
2022/09/30 01:57:13;;;;;;;;;4.00;3.40;;;;;5.45;80.43;99124.47;5032034;28;8868;-63
2022/09/30 01:59:41;;;;;;;;;6.00;5.60;;;;;5.45;79.70;99133.25;5031579;28;8909;-63
2022/09/30 02:02:08;;;;;;;;;5.60;4.80;;;;;5.43;80.34;99131.66;5032137;28;8848;-62
2022/09/30 02:04:36;;;;;;;;;4.00;4.00;;;;;5.40;79.99;99129.25;5031647;28;8859;-63
2022/09/30 02:07:03;;;;;;;;;5.20;5.20;;;;;5.38;80.07;99132.00;5030958;28;8825;-60
2022/09/30 02:09:31;;;;;;;;;3.80;3.80;;;;;5.35;80.44;99126.94;5031406;28;9518;-62
2022/09/30 02:11:59;;;;;;;;;4.40;4.40;;;;;5.35;80.16;99136.66;5030117;28;8857;-62
2022/09/30 02:14:26;;;;;;;;;6.20;6.20;;;;;5.34;80.12;99129.69;5030171;28;9494;-61
2022/09/30 02:16:54;;;;;;;;;6.20;5.40;;;;;5.33;80.24;99141.19;5029980;28;8836;-60
2022/09/30 02:19:22;;;;;;;;;6.40;6.40;;;;;5.32;79.93;99131.59;5030520;28;8853;-62
2022/09/30 02:21:50;;;;;;;;;5.20;5.20;;;;;5.30;80.51;99134.34;5030685;28;8836;-62
2022/09/30 02:24:17;;;;;;;;;6.20;4.80;;;;;5.27;79.96;99129.28;5032353;28;8825;-62
2022/09/30 02:26:45;;;;;;;;;4.80;4.00;;;;;5.25;80.03;99125.06;5033410;28;8835;-63
2022/09/30 02:29:12;;;;;;;;;3.00;3.00;;;;;5.22;80.80;99131.41;5035359;28;8921;-63
2022/09/30 02:31:40;;;;;;;;;4.00;3.40;;;;;5.19;80.45;99131.63;5035284;28;8855;-63
2022/09/30 02:34:08;;;;;;;;;4.00;4.00;;;;;5.17;80.35;99132.69;5035050;28;8851;-62
2022/09/30 02:36:35;;;;;;;;;3.00;3.00;;;;;5.13;80.11;99131.19;5035361;28;9494;-63
2022/09/30 02:39:03;;;;;;;;;4.00;3.80;;;;;5.10;80.51;99139.34;5035121;28;8817;-62
2022/09/30 02:41:30;;;;;;;;;3.00;3.00;;;;;5.08;80.19;99134.16;5035206;28;8849;-63
2022/09/30 02:43:58;;;;;;;;;4.00;4.00;;;;;5.06;80.77;99129.94;5035021;28;8821;-62
2022/09/30 02:46:26;;;;;;;;;4.80;4.80;;;;;5.05;80.62;99123.00;5031920;28;8976;-61
2022/09/30 02:48:53;;;;;;;;;3.40;3.40;;;;;5.04;80.43;99130.06;5032127;28;8836;-62
2022/09/30 02:51:21;;;;;;;;;4.00;2.40;;;;;5.04;81.04;99127.44;5034757;28;8840;-61
2022/09/30 02:53:49;;;;;;;;;5.20;5.20;;;;;5.05;80.40;99121.22;5034643;28;8856;-63
2022/09/30 02:56:16;;;;;;;;;3.00;3.00;;;;;5.09;80.67;99129.75;5031755;28;8868;-61
2022/09/30 02:58:44;;;;;;;;;5.80;5.60;;;;;5.10;80.46;99131.44;5034102;28;8897;-63
2022/09/30 03:01:12;;;;;;;;;4.00;4.00;;;;;5.11;80.44;99135.75;5034948;28;8845;-62
2022/09/30 03:03:40;;;;;;;;;3.20;2.60;;;;;5.08;80.38;99134.16;5034765;28;8829;-61
2022/09/30 03:06:07;;;;;;;;;3.00;1.00;;;;;5.06;80.70;99140.50;5034563;28;8893;-62
2022/09/30 03:08:35;;;;;;;;;6.00;5.60;;;;;5.05;80.01;99142.31;5034845;28;8825;-61
2022/09/30 03:11:03;;;;;;;;;3.20;3.00;;;;;5.04;79.88;99147.69;5034301;28;8903;-63
2022/09/30 03:13:30;;;;;;;;;3.80;3.60;;;;;5.01;80.59;99138.19;5034582;28;8833;-62
2022/09/30 03:15:58;;;;;;;;;1.00;1.00;;;;;4.99;80.22;99145.38;5033072;28;8833;-62
2022/09/30 03:18:26;;;;;;;;;6.00;5.20;;;;;4.97;80.65;99151.69;5034259;28;8832;-60
2022/09/30 03:20:53;;;;;;;;;3.40;3.00;;;;;4.94;80.54;99155.38;5034751;28;8861;-62
2022/09/30 03:23:21;;;;;;;;;6.60;6.20;;;;;4.92;80.52;99154.66;5034553;28;8895;-63
2022/09/30 03:25:49;;;;;;;;;3.80;3.80;;;;;4.92;80.28;99159.06;5032253;28;9602;-63
2022/09/30 03:28:17;;;;;;;;;4.40;4.40;;;;;4.91;80.62;99163.53;5032086;28;8829;-63
2022/09/30 03:30:44;;;;;;;;;3.20;1.40;;;;;4.93;80.55;99166.06;5033789;28;8829;-62
2022/09/30 03:33:12;;;;;;;;;5.20;5.20;;;;;4.90;80.74;99167.13;5034231;28;8849;-63
2022/09/30 03:35:40;;;;;;;;;4.40;3.80;;;;;4.89;80.65;99161.94;5033466;28;8805;-63
2022/09/30 03:38:07;;;;;;;;;4.80;4.40;;;;;4.89;80.08;99164.56;5034143;28;8844;-61
2022/09/30 03:40:35;;;;;;;;;3.80;3.60;;;;;4.87;80.09;99169.13;5033863;28;8841;-63
2022/09/30 03:43:03;;;;;;;;;4.00;4.00;;;;;4.85;80.82;99178.91;5034166;28;8932;-62
2022/09/30 03:45:30;;;;;;;;;3.00;3.00;;;;;4.82;80.63;99176.50;5034087;28;8832;-62
2022/09/30 03:47:58;;;;;;;;;1.80;1.80;;;;;4.77;80.43;99165.41;5034046;28;9479;-62
2022/09/30 03:50:26;;;;;;;;;5.40;5.00;;;;;4.75;80.08;99172.59;5033879;28;8906;-63
2022/09/30 03:52:53;;;;;;;;;5.60;4.80;;;;;4.72;80.55;99171.00;5033501;28;8925;-61
2022/09/30 03:55:21;;;;;;;;;3.80;3.60;;;;;4.71;80.93;99165.84;5033409;28;8833;-61
2022/09/30 03:57:50;;;;;;;;;3.80;3.40;;;;;4.70;80.51;99169.41;5034069;28;8829;-62
2022/09/30 04:00:19;;;;;;;;;6.00;4.80;;;;;4.69;80.86;99173.88;5032916;28;8825;-60
2022/09/30 04:02:47;;;;;;;;;6.20;5.20;;;;;4.68;80.57;99181.88;5033199;28;8901;-62
2022/09/30 04:05:14;;;;;;;;;5.20;4.00;;;;;4.65;80.27;99176.81;5033333;28;8909;-63
2022/09/30 04:07:42;;;;;;;;;6.00;5.20;;;;;4.62;80.71;99183.13;5033392;28;9545;-62
2022/09/30 04:10:09;;;;;;;;;5.20;4.80;;;;;4.60;80.44;99184.19;5033154;28;9479;-60
2022/09/30 04:12:37;;;;;;;;;6.60;5.60;;;;;4.59;81.09;99198.31;5033396;28;8841;-60
2022/09/30 04:15:05;;;;;;;;;5.60;5.60;;;;;4.57;80.93;99190.50;5033352;28;8904;-59
2022/09/30 04:17:32;;;;;;;;;4.00;4.00;;;;;4.55;81.13;99192.41;5032997;28;8829;-59
2022/09/30 04:20:00;;;;;;;;;6.00;4.40;;;;;4.55;80.49;99196.81;5032839;28;8967;-63
2022/09/30 04:22:28;;;;;;;;;6.00;5.20;;;;;4.53;80.79;99198.72;5032960;28;8929;-62
2022/09/30 04:24:56;;;;;;;;;5.20;4.00;;;;;4.53;80.85;99204.84;5033180;28;8816;-62
2022/09/30 04:27:23;;;;;;;;;6.60;6.60;;;;;4.52;80.36;99205.81;5032962;28;9188;-62
2022/09/30 04:29:51;;;;;;;;;3.20;3.20;;;;;4.50;80.46;99212.94;5032996;28;8841;-61
2022/09/30 04:32:18;;;;;;;;;3.20;3.20;;;;;4.51;81.01;99221.72;5032374;28;8832;-62
2022/09/30 04:34:46;;;;;;;;;3.00;3.00;;;;;4.50;80.91;99225.28;5032017;28;8841;-61
2022/09/30 04:37:14;;;;;;;;;5.20;5.20;;;;;4.50;81.11;99236.66;5033192;28;8913;-62
2022/09/30 04:39:43;;;;;;;;;5.20;5.20;;;;;4.50;80.54;99227.94;5032940;28;8829;-62
2022/09/30 04:42:10;;;;;;;;;6.80;6.80;;;;;4.49;80.15;99236.78;5032514;28;8853;-61
2022/09/30 04:44:38;;;;;;;;;6.40;5.60;;;;;4.47;80.95;99236.88;5032836;28;8848;-61
2022/09/30 04:47:06;;;;;;;;;3.80;1.40;;;;;4.47;80.33;99246.56;5032642;28;8817;-62
2022/09/30 04:49:34;;;;;;;;;0.00;0.00;;;;;4.45;80.81;99240.56;5032780;28;8833;-62
2022/09/30 04:52:01;;;;;;;;;4.00;4.00;;;;;4.42;81.07;99241.59;5032927;28;8840;-62
2022/09/30 04:54:29;;;;;;;;;4.00;4.00;;;;;4.41;80.27;99241.72;5032257;28;8845;-62
2022/09/30 04:56:56;;;;;;;;;4.00;3.40;;;;;4.38;80.51;99239.28;5032368;28;8844;-62
2022/09/30 04:59:24;;;;;;;;;3.40;3.40;;;;;4.33;80.84;99247.47;5032242;28;8836;-62
2022/09/30 05:01:52;;;;;;;;;3.00;3.00;;;;;4.30;80.85;99250.31;5032060;28;8909;-62
2022/09/30 05:04:20;;;;;;;;;3.20;3.20;;;;;4.25;81.03;99259.47;5030723;28;8828;-60
2022/09/30 05:06:48;;;;;;;;;6.60;6.00;;;;;4.22;81.06;99257.03;5031586;28;8821;-62
2022/09/30 05:09:16;;;;;;;;;3.60;3.60;;;;;4.20;80.62;99261.56;5030993;28;8848;-61
2022/09/30 05:11:44;;;;;;;;;3.40;3.40;;;;;4.19;80.60;99258.06;5030212;28;8841;-62
2022/09/30 05:14:12;;;;;;;;;4.00;4.00;;;;;4.19;80.76;99262.50;5030961;28;8825;-62
2022/09/30 05:16:39;;;;;;;;;1.00;1.00;;;;;4.20;80.77;99259.75;5029356;28;8913;-60
2022/09/30 05:19:07;;;;;;;;;2.20;2.20;;;;;4.23;80.91;99266.63;5029187;28;8836;-62
2022/09/30 05:21:34;;;;;;;;;5.20;5.20;;;;;4.24;80.82;99261.25;5030320;28;8824;-61
2022/09/30 05:24:02;;;;;;;;;3.00;2.60;;;;;4.23;81.12;99263.97;5029561;28;8845;-59
2022/09/30 05:26:31;;;;;;;;;4.20;3.40;;;;;4.23;80.42;99256.94;5029517;28;8844;-62
2022/09/30 05:28:59;;;;;;;;;4.00;3.80;;;;;4.23;80.43;99254.31;5029596;28;8821;-62
2022/09/30 05:31:27;;;;;;;;;2.20;2.20;;;;;4.26;80.84;99258.53;5030024;28;8929;-61
2022/09/30 05:33:54;;;;;;;;;3.60;3.40;;;;;4.27;80.45;99255.78;5029383;28;8833;-61
2022/09/30 05:36:24;;;;;;;;;4.40;4.40;;;;;4.25;80.88;99257.69;5030122;28;8893;-60
2022/09/30 05:38:52;;;;;;;;;3.60;3.60;;;;;4.24;80.51;99256.00;5030980;28;8929;-63
2022/09/30 05:41:20;;;;;;;;;4.80;4.40;;;;;4.24;80.50;99265.66;5029234;28;8841;-60
2022/09/30 05:43:47;;;;;;;;;6.40;6.40;;;;;4.23;80.94;99270.13;5029343;28;9510;-62
2022/09/30 05:46:15;;;;;;;;;4.00;4.00;;;;;4.25;80.63;99275.28;5028480;28;8848;-62
2022/09/30 05:48:43;;;;;;;;;1.80;1.80;;;;;4.28;80.30;99272.44;5028785;28;8833;-61
2022/09/30 05:51:12;;;;;;;;;4.00;3.20;;;;;4.28;80.26;99272.44;5029639;28;8845;-62
2022/09/30 05:53:40;;;;;;;;;3.00;3.00;;;;;4.30;80.74;99278.44;5028395;28;8845;-60
2022/09/30 05:56:07;;;;;;;;;4.00;4.00;;;;;4.32;80.39;99287.09;5029221;28;8857;-62
2022/09/30 05:58:35;;;;;;;;;6.80;6.00;;;;;4.37;80.26;99285.03;5031786;28;8840;-60
2022/09/30 06:01:05;;;;;;;;;4.20;4.20;;;;;4.41;80.07;99287.34;5035762;28;8837;-63
2022/09/30 06:03:39;;;;;;;;;3.60;3.60;;;;;4.47;79.96;99278.19;5035920;28;9495;-61
2022/09/30 06:06:07;;;;;;;;;3.20;3.20;;;;;4.52;79.98;99289.28;5035518;28;9266;-62
2022/09/30 06:08:34;;;;;;;;;6.00;6.00;;;;;4.55;80.15;99283.81;5036020;28;8829;-62
2022/09/30 06:11:02;;;;;;;;;3.80;3.80;;;;;4.60;79.93;99294.91;5036825;28;8917;-62
2022/09/30 06:13:30;;;;;;;;;3.00;3.00;;;;;4.65;79.24;99292.81;5035427;28;8861;-62
2022/09/30 06:15:58;;;;;;;;;5.60;4.00;;;;;4.74;79.47;99297.47;5034921;28;8845;-62
2022/09/30 06:18:26;;;;;;;;;9.20;7.40;;;;;4.83;79.39;99305.63;5035910;28;8856;-62
2022/09/30 06:20:54;;;;;;;;;8.20;6.40;;;;;4.89;79.59;99312.28;5036110;28;8816;-62
2022/09/30 06:23:22;;;;;;;;;3.00;3.00;;;;;4.94;79.05;99315.47;5033974;28;8829;-62
2022/09/30 06:25:49;;;;;;;;;7.00;6.20;;;;;4.99;79.67;99318.63;5034845;28;8821;-62
2022/09/30 06:28:18;;;;;;;;;6.60;6.00;;;;;5.03;79.36;99320.13;5035337;28;8855;-62
2022/09/30 06:30:45;;;;;;;;;9.00;9.00;;;;;5.06;79.21;99325.19;5035787;28;9537;-62
2022/09/30 06:33:13;;;;;;;;;6.80;6.00;;;;;5.11;78.86;99325.72;5036470;28;8841;-62
2022/09/30 06:35:41;;;;;;;;;7.80;7.00;;;;;5.17;79.20;99322.69;5036278;28;8845;-62
2022/09/30 06:38:09;;;;;;;;;7.80;7.20;;;;;5.25;79.17;99325.63;5036954;28;8829;-62
2022/09/30 06:40:37;;;;;;;;;9.80;9.80;;;;;5.32;78.88;99324.28;5037379;28;8885;-60
2022/09/30 06:43:05;;;;;;;;;9.00;7.00;;;;;5.39;78.59;99312.34;5037488;28;8843;-61
2022/09/30 06:45:34;;;;;;;;;4.00;2.60;;;;;5.43;78.42;99319.94;5036862;28;8848;-62
2022/09/30 06:48:03;;;;;;;;;9.40;7.80;;;;;5.56;78.58;99325.22;5036519;28;8846;-62
2022/09/30 06:50:31;;;;;;;;;7.80;6.20;;;;;5.65;77.95;99327.22;5035706;28;8852;-62
2022/09/30 06:52:59;;;;;;;;;8.60;8.60;;;;;5.75;78.47;99328.25;5035767;28;8833;-62
2022/09/30 06:55:27;;;;;;;;;8.20;8.20;;;;;5.82;78.38;99329.56;5034447;28;8840;-62
2022/09/30 06:57:55;;;;;;;;;9.00;7.40;;;;;5.87;77.75;99330.09;5034887;28;8841;-63
2022/09/30 07:00:23;;;;;;;;;7.00;6.80;;;;;5.93;78.14;99332.31;5035317;28;8845;-61
2022/09/30 07:02:50;;;;;;;;;21.40;20.80;;;;;6.00;78.09;99336.19;5034379;28;8859;-62
2022/09/30 07:05:18;;;;;;;;;9.00;9.00;;;;;6.07;77.51;99340.09;5033894;28;8821;-62
2022/09/30 07:07:47;;;;;;;;;11.60;10.80;;;;;6.17;77.29;99346.41;5033375;28;8941;-62
2022/09/30 07:10:15;;;;;;;;;8.80;8.20;;;;;6.26;77.76;99327.25;5031150;28;8845;-62
2022/09/30 07:12:43;;;;;;;;;10.00;9.20;;;;;6.38;77.16;99332.47;5031648;28;8840;-61
2022/09/30 07:15:10;;;;;;;;;10.40;9.20;;;;;6.50;77.09;99343.97;5030700;28;8845;-61
2022/09/30 07:17:42;;;;;;;;;7.60;6.40;;;;;6.62;76.67;99341.31;5030541;28;9204;-61
2022/09/30 07:20:09;;;;;;;;;12.20;9.80;;;;;6.78;76.73;99341.00;5029873;28;8848;-60
2022/09/30 07:22:37;;;;;;;;;8.40;6.20;;;;;6.95;76.37;99337.94;5029448;28;9233;-60
2022/09/30 07:25:05;;;;;;;;;13.80;12.40;;;;;7.11;76.07;99335.84;5029358;28;9279;-62
2022/09/30 07:27:34;;;;;;;;;3.40;3.00;;;;;7.26;75.35;99334.69;5030689;28;8853;-63
2022/09/30 07:30:02;;;;;;;;;15.00;13.00;;;;;7.43;75.48;99334.25;5030459;28;8829;-61
2022/09/30 07:32:37;;;;;;;;;11.20;11.20;;;;;7.61;75.05;99330.19;5030278;28;9164;-62
2022/09/30 07:35:06;;;;;;;;;13.00;12.80;;;;;7.76;75.28;99338.63;5029320;28;8953;-62
2022/09/30 07:37:34;;;;;;;;;12.00;10.80;;;;;7.92;74.86;99333.81;5030410;28;8847;-62
2022/09/30 07:40:03;;;;;;;;;6.20;6.00;;;;;8.12;74.05;99334.88;5029411;28;8859;-61
2022/09/30 07:42:31;;;;;;;;;12.60;12.20;;;;;8.30;74.45;99334.28;5029397;28;9553;-60
2022/09/30 07:44:59;;;;;;;;;11.60;11.60;;;;;8.47;74.36;99336.47;5029583;28;8825;-62
2022/09/30 07:47:27;;;;;;;;;12.00;11.60;;;;;8.65;73.47;99339.44;5029237;28;8940;-59
2022/09/30 07:49:54;;;;;;;;;12.40;12.00;;;;;8.81;73.76;99337.22;5028949;28;8833;-60
2022/09/30 07:52:22;;;;;;;;;7.50;6.00;;;;;8.98;73.05;99336.66;5028685;28;8854;-60
2022/09/30 07:54:50;;;;;;;;;9.00;7.00;;;;;9.11;73.39;99337.34;5029724;28;8847;-60
2022/09/30 07:57:18;;;;;;;;;10.50;9.50;;;;;9.24;73.30;99338.81;5029869;28;8851;-60
2022/09/30 07:59:46;;;;;;;;;14.50;14.50;;;;;9.42;73.18;99347.91;5029942;28;8913;-61
2022/09/30 08:02:13;;;;;;;;;15.50;14.00;;;;;9.58;72.87;99342.13;5028405;28;9542;-61
2022/09/30 08:04:43;;;;;;;;;13.50;12.75;;;;;9.74;72.40;99339.84;5027558;28;8903;-63
2022/09/30 08:07:11;;;;;;;;;15.25;14.00;;;;;9.90;72.33;99335.75;5028592;28;9610;-61
2022/09/30 08:09:39;;;;;;;;;13.00;13.00;;;;;10.08;72.10;99336.00;5028351;28;8966;-60
2022/09/30 08:12:07;;;;;;;;;12.00;11.00;;;;;10.24;71.88;99342.50;5028778;28;8857;-60
2022/09/30 08:14:34;;;;;;;;;13.75;13.75;;;;;10.40;71.83;99334.84;5027386;28;8841;-62
2022/09/30 08:17:03;;;;;;;;;12.50;12.00;;;;;10.58;71.82;99327.03;5027254;28;8837;-63
2022/09/30 08:19:32;;;;;;;;;12.75;11.50;;;;;10.75;71.53;99335.19;5027837;28;8824;-60
2022/09/30 08:22:00;;;;;;;;;13.50;12.75;;;;;10.91;71.39;99329.34;5027796;28;8856;-61
2022/09/30 08:24:29;;;;;;;;;11.50;10.75;;;;;11.07;71.07;99332.28;5029178;28;8781;-61
2022/09/30 08:26:57;;;;;;;;;13.75;13.75;;;;;11.35;70.47;99337.59;5028647;28;8837;-61
2022/09/30 08:29:25;;;;;;;;;13.50;13.50;;;;;11.74;69.88;99338.44;5028221;28;9541;-62
2022/09/30 08:32:13;;;;;;;;;9.00;9.00;;;;;12.09;69.83;99336.75;5028300;28;8924;-61
2022/09/30 08:34:41;;;;;;;;;14.50;12.50;;;;;12.29;69.25;99341.00;5028993;28;8833;-62
2022/09/30 08:37:10;;;;;;;;;14.00;14.00;;;;;12.45;69.05;99334.06;5029268;28;8828;-62
2022/09/30 08:39:38;;;;;;;;;13.00;13.00;;;;;12.58;69.06;99336.38;5028318;28;8856;-61
2022/09/30 08:42:06;;;;;;;;;12.25;11.50;;;;;12.67;68.92;99335.47;5028063;28;8904;-61
2022/09/30 08:44:54;;;;;;;;;6.75;5.00;;;;;12.76;69.17;99338.09;5028189;28;8849;-60
2022/09/30 08:47:24;;;;;;;;;15.00;13.00;;;;;12.84;68.99;99340.00;5027891;28;8859;-61
2022/09/30 08:49:52;;;;;;;;;13.00;12.50;;;;;12.92;68.95;99329.41;5029118;28;8832;-60
2022/09/30 08:52:20;;;;;;;;;10.00;10.00;;;;;13.01;68.72;99332.06;5027207;28;9557;-60
2022/09/30 08:55:04;;;;;;;;;15.00;11.50;;;;;13.13;68.54;99332.66;5027785;28;9517;-61
2022/09/30 08:57:32;;;;;;;;;18.50;18.00;;;;;13.21;68.64;99330.88;5027971;28;8898;-59
2022/09/30 09:00:04;;;;;;;;;13.00;12.25;;;;;13.28;68.13;99331.13;5028837;28;8847;-63
2022/09/30 09:02:32;;;;;;;;;10.00;10.00;;;;;13.34;68.41;99336.69;5028519;28;8833;-62
2022/09/30 09:05:00;;;;;;;;;11.00;9.75;;;;;13.43;67.98;99343.78;5027857;28;8855;-64
2022/09/30 09:07:29;;;;;;;;;12.25;11.00;;;;;13.54;68.25;99337.34;5029354;28;8890;-63
2022/09/30 09:34:42;;;;;;;;;10.00;7.00;;;;;14.79;66.42;99325.00;5161474;22;8876;-61
2022/09/30 09:37:11;;;;;;;;;11.00;10.75;;;;;14.96;65.75;99324.03;5026713;28;8835;-61
2022/09/30 09:39:38;;;;;;;;;12.75;12.00;;;;;15.12;65.54;99326.75;5025898;28;8965;-60
2022/09/30 09:42:06;;;;;;;;;7.50;6.75;;;;;15.22;65.56;99332.78;5026809;28;8871;-60
2022/09/30 09:44:34;;;;;;;;;12.50;11.75;;;;;15.35;64.99;99330.47;5025751;28;8878;-60
2022/09/30 09:47:04;;;;;;;;;10.50;10.50;;;;;15.51;65.13;99327.78;5026886;28;9608;-60
2022/09/30 09:49:32;;;;;;;;;9.75;9.75;;;;;15.75;64.33;99323.25;5027248;28;8847;-60
2022/09/30 09:52:02;;;;;;;;;8.00;8.00;;;;;16.04;64.40;99311.94;5027634;28;8850;-60
2022/09/30 09:54:30;;;;;;;;;13.00;12.25;;;;;16.39;63.82;99315.91;5028126;28;8890;-60
2022/09/30 09:56:57;;;;;;;;;12.50;12.25;;;;;16.82;63.33;99318.06;5027950;28;8867;-61
2022/09/30 09:59:25;;;;;;;;;11.50;9.75;;;;;17.25;62.43;99322.78;5029148;28;8835;-60
2022/09/30 10:01:54;;;;;;;;;10.40;9.20;;;;;17.72;61.88;99320.78;5028233;28;9607;-63
2022/09/30 10:04:24;;;;;;;;;11.60;10.00;;;;;18.55;60.46;99318.72;5028041;28;8847;-60
2022/09/30 10:06:52;;;;;;;;;9.40;9.20;;;;;19.57;58.17;99300.38;5028172;28;8914;-60
2022/09/30 10:09:20;;;;;;;;;15.20;10.40;;;;;20.31;57.02;99305.09;5027542;28;8859;-60
2022/09/30 10:11:49;;;;;;;;;7.80;7.80;;;;;20.29;56.27;99302.59;5027607;28;8836;-60
2022/09/30 10:14:17;;;;;;;;;10.40;9.40;;;;;19.98;57.34;99312.13;5026575;28;8894;-60
2022/09/30 10:16:45;;;;;;;;;13.00;12.60;;;;;19.47;58.35;99316.03;5026089;28;8866;-60
2022/09/30 10:19:13;;;;;;;;;12.80;12.00;;;;;19.27;58.98;99315.84;5026827;28;9147;-60
2022/09/30 10:21:40;;;;;;;;;10.80;10.40;;;;;19.37;58.33;99315.53;5028363;28;8921;-60
2022/09/30 10:24:08;;;;;;;;;16.40;13.00;;;;;19.24;58.44;99313.56;5029813;28;9199;-61
2022/09/30 10:26:37;;;;;;;;;12.00;12.00;;;;;18.73;59.64;99322.69;5029315;28;8972;-61
2022/09/30 10:29:05;;;;;;;;;10.00;7.00;;;;;18.36;60.93;99314.72;5028431;28;8974;-61
2022/09/30 10:31:33;;;;;;;;;7.80;7.80;;;;;18.01;61.47;99323.53;5029093;28;8868;-61
2022/09/30 10:34:00;;;;;;;;;11.00;9.80;;;;;17.56;62.22;99326.31;5029793;28;8880;-60
2022/09/30 10:36:28;;;;;;;;;13.80;12.80;;;;;17.13;62.98;99334.16;5030262;28;8860;-60
2022/09/30 10:38:57;;;;;;;;;11.00;11.00;;;;;16.77;63.65;99333.00;5030510;28;8847;-60
2022/09/30 10:41:30;;;;;;;;;9.20;7.00;;;;;16.46;64.89;99333.00;5030552;28;8847;-61
2022/09/30 10:43:58;;;;;;;;;10.40;9.20;;;;;16.20;64.98;99335.06;5029664;28;8974;-61
2022/09/30 10:46:26;;;;;;;;;11.80;11.40;;;;;16.04;65.03;99336.13;5032759;28;8831;-60
2022/09/30 10:48:55;;;;;;;;;11.20;9.40;;;;;15.89;65.20;99329.78;5032448;28;8840;-61
2022/09/30 10:51:23;;;;;;;;;7.00;7.00;;;;;15.75;65.35;99327.78;5032685;28;8848;-60
2022/09/30 10:53:52;;;;;;;;;7.00;7.00;;;;;15.63;65.57;99329.16;5032766;28;8862;-59
2022/09/30 10:56:19;;;;;;;;;9.25;8.50;;;;;15.81;65.13;99333.31;5032539;28;8874;-60
2022/09/30 10:58:47;;;;;;;;;9.25;9.00;;;;;15.82;64.50;99334.13;5032609;28;8847;-59
2022/09/30 11:01:16;;;;;;;;;15.50;15.50;;;;;15.73;64.54;99319.91;5033600;28;8945;-59
2022/09/30 11:03:45;;;;;;;;;6.00;6.00;;;;;16.02;63.83;99324.72;5033974;28;8862;-59
2022/09/30 11:06:13;;;;;;;;;7.00;7.00;;;;;16.17;63.36;99330.03;5034086;28;8867;-60
2022/09/30 11:08:41;;;;;;;;;7.00;6.25;;;;;16.13;63.42;99324.34;5033009;28;8831;-61
2022/09/30 11:11:10;;;;;;;;;9.25;9.25;;;;;16.16;64.04;99322.16;5033167;28;8940;-62
2022/09/30 11:13:38;;;;;;;;;6.00;6.00;;;;;16.49;62.71;99316.50;5033616;28;8882;-60
2022/09/30 11:16:05;;;;;;;;;9.00;9.00;;;;;17.12;61.34;99317.19;5034106;28;9591;-60
2022/09/30 11:18:33;;;;;;;;;7.80;7.80;;;;;17.70;60.03;99320.09;5032991;28;8852;-59
2022/09/30 11:21:02;;;;;;;;;7.40;7.00;;;;;17.90;60.03;99321.25;5032563;28;8844;-60
2022/09/30 11:23:30;;;;;;;;;7.40;7.00;;;;;17.93;59.59;99315.50;5032442;28;8870;-59
2022/09/30 11:25:58;;;;;;;;;8.40;7.40;;;;;18.21;59.11;99316.53;5032566;28;8855;-59
2022/09/30 11:28:26;;;;;;;;;9.40;9.00;;;;;18.60;58.39;99316.28;5031102;28;8844;-60
2022/09/30 11:30:54;;;;;;;;;9.60;8.20;;;;;19.37;55.26;99326.34;5031393;28;8939;-60
2022/09/30 11:33:22;;;;;;;;;8.20;8.20;;;;;19.54;55.13;99330.44;5030850;28;8986;-60
2022/09/30 11:35:50;;;;;;;;;6.40;6.40;;;;;19.08;55.89;99326.41;5031861;28;8893;-59
2022/09/30 11:38:17;;;;;;;;;7.80;7.80;;;;;18.98;56.50;99321.31;5032295;28;8933;-60
2022/09/30 11:40:46;;;;;;;;;6.60;6.60;;;;;20.18;54.45;99322.06;5032571;28;8852;-59
2022/09/30 11:43:14;;;;;;;;;7.40;7.00;;;;;21.39;51.69;99318.44;5033116;28;8847;-60
2022/09/30 11:45:42;;;;;;;;;11.40;8.20;;;;;22.30;50.76;99310.34;5032718;28;8925;-59
2022/09/30 11:48:10;;;;;;;;;9.60;9.60;;;;;22.88;49.09;99309.34;5032250;28;8856;-59
2022/09/30 11:50:38;;;;;;;;;5.40;5.00;;;;;23.07;49.68;99311.94;5032817;28;8855;-60
2022/09/30 11:53:06;;;;;;;;;6.60;5.80;;;;;23.30;49.18;99309.56;5031255;28;8831;-60
2022/09/30 11:55:34;;;;;;;;;7.40;5.00;;;;;22.94;50.33;99322.91;5030775;28;9659;-60
2022/09/30 11:58:02;;;;;;;;;4.80;4.80;;;;;22.03;51.81;99327.69;5030865;28;8856;-59
2022/09/30 12:00:50;;;;;;;;;5.00;5.00;;;;;21.02;53.97;99327.13;5030986;28;8872;-59
2022/09/30 12:03:18;;;;;;;;;8.00;8.00;;;;;20.24;55.52;99336.69;5030526;28;8868;-59
2022/09/30 12:05:46;;;;;;;;;7.40;7.40;;;;;20.03;56.02;99340.22;5031581;28;8874;-59
2022/09/30 12:08:14;;;;;;;;;5.00;5.00;;;;;19.89;55.60;99338.44;5031922;28;8917;-59
2022/09/30 12:10:43;;;;;;;;;10.00;7.80;;;;;19.29;57.08;99338.13;5031937;28;8937;-60
2022/09/30 12:13:11;;;;;;;;;7.60;6.60;;;;;18.68;58.29;99341.28;5031183;28;8970;-59